createdAt,value
2024-05-09T00:00:40.035Z,3.67
2024-05-09T00:03:09.874Z,2.67
2024-05-09T00:05:38.416Z,2.17
2024-05-09T00:08:05.941Z,4.28
2024-05-09T00:10:37.203Z,3.65
2024-05-09T00:13:10.437Z,2.30
2024-05-09T00:15:38.262Z,3.35
2024-05-09T00:18:07.697Z,3.70
2024-05-09T00:20:39.195Z,2.90
2024-05-09T00:23:12.558Z,3.20
2024-05-09T00:25:44.378Z,3.67
2024-05-09T00:28:12.377Z,4.65
2024-05-09T00:30:39.757Z,4.50
2024-05-09T00:33:08.375Z,3.33
2024-05-09T00:35:36.823Z,2.78
2024-05-09T00:38:04.506Z,2.83
2024-05-09T00:40:40.484Z,3.10
2024-05-09T00:43:10.683Z,2.78
2024-05-09T00:45:37.921Z,3.33
2024-05-09T00:48:07.803Z,3.05
2024-05-09T00:50:38.836Z,3.50
2024-05-09T00:53:11.855Z,3.45
2024-05-09T00:55:40.231Z,7.00
2024-05-09T00:58:09.663Z,3.58
2024-05-09T01:00:39.987Z,3.10
2024-05-09T01:03:10.802Z,3.80
2024-05-09T01:05:40.192Z,2.53
2024-05-09T01:08:08.728Z,3.95
2024-05-09T01:10:37.014Z,3.20
2024-05-09T01:13:07.647Z,2.55
2024-05-09T01:15:35.874Z,3.17
2024-05-09T01:18:09.823Z,3.35
2024-05-09T01:20:42.203Z,2.60
2024-05-09T01:23:12.562Z,3.42
2024-05-09T01:25:40.825Z,2.78
2024-05-09T01:28:07.767Z,3.60
2024-05-09T01:30:37.072Z,3.20
2024-05-09T01:33:07.349Z,2.85
2024-05-09T01:35:36.372Z,2.90
2024-05-09T01:38:03.429Z,2.95
2024-05-09T01:40:37.236Z,2.17
2024-05-09T01:43:10.855Z,3.90
2024-05-09T01:45:41.942Z,3.15
2024-05-09T01:48:10.461Z,3.55
2024-05-09T01:50:41.515Z,3.78
2024-05-09T01:53:14.504Z,3.53
2024-05-09T01:55:42.578Z,3.22
2024-05-09T01:58:10.049Z,4.10
2024-05-09T02:00:57.194Z,4.00
2024-05-09T02:03:47.821Z,3.92
2024-05-09T02:06:15.032Z,3.38
2024-05-09T02:08:42.287Z,4.38
2024-05-09T02:11:10.749Z,4.72
2024-05-09T02:13:37.586Z,3.53
2024-05-09T02:16:04.720Z,3.40
2024-05-09T02:18:31.806Z,3.90
2024-05-09T02:20:58.696Z,4.05
2024-05-09T02:23:25.809Z,3.78
2024-05-09T02:25:52.758Z,3.95
2024-05-09T02:28:21.424Z,3.53
2024-05-09T02:30:48.203Z,3.95
2024-05-09T02:33:15.259Z,3.42
2024-05-09T02:35:43.624Z,4.10
2024-05-09T02:38:11.724Z,2.97
2024-05-09T02:40:39.988Z,3.50
2024-05-09T02:43:10.353Z,3.05
2024-05-09T02:45:40.759Z,3.28
2024-05-09T02:48:10.967Z,3.78
2024-05-09T02:50:40.824Z,3.58
2024-05-09T02:53:09.235Z,4.10
2024-05-09T02:55:40.439Z,3.92
2024-05-09T02:58:07.739Z,4.18
2024-05-09T03:00:39.379Z,4.07
2024-05-09T03:03:10.972Z,4.07
2024-05-09T03:05:40.815Z,3.47
2024-05-09T03:08:08.243Z,3.58
2024-05-09T03:10:37.548Z,3.38
2024-05-09T03:13:15.094Z,5.30
2024-05-09T03:15:43.694Z,3.22
2024-05-09T03:18:11.427Z,4.18
2024-05-09T03:20:39.233Z,5.18
2024-05-09T03:23:09.152Z,3.45
2024-05-09T03:25:36.968Z,3.72
2024-05-09T03:28:04.117Z,4.90
2024-05-09T03:30:39.642Z,4.60
2024-05-09T03:33:15.443Z,5.00
2024-05-09T03:35:44.046Z,4.65
2024-05-09T03:38:11.029Z,4.55
2024-05-09T03:40:46.682Z,5.32
2024-05-09T03:43:14.299Z,4.38
2024-05-09T03:45:42.836Z,3.25
2024-05-09T03:48:10.229Z,4.10
2024-05-09T03:50:37.877Z,5.43
2024-05-09T03:53:05.500Z,4.97
2024-05-09T03:55:32.575Z,4.75
2024-05-09T03:57:59.563Z,4.28
2024-05-09T04:00:35.139Z,3.20
2024-05-09T04:03:08.747Z,4.30
2024-05-09T04:05:39.801Z,4.47
2024-05-09T04:08:07.577Z,3.80
2024-05-09T04:10:35.318Z,4.93
2024-05-09T04:13:03.497Z,4.30
2024-05-09T04:15:30.952Z,4.28
2024-05-09T04:17:58.403Z,3.70
2024-05-09T04:20:35.891Z,4.10
2024-05-09T04:23:07.887Z,5.63
2024-05-09T04:25:35.632Z,4.55
2024-05-09T04:28:02.647Z,5.75
2024-05-09T04:30:37.150Z,4.40
2024-05-09T04:33:08.848Z,4.72
2024-05-09T04:35:38.020Z,4.78
2024-05-09T04:38:05.886Z,4.97
2024-05-09T04:40:36.000Z,4.28
2024-05-09T04:43:05.308Z,3.83
2024-05-09T04:45:32.521Z,3.58
2024-05-09T04:47:59.766Z,4.38
2024-05-09T04:50:35.528Z,3.80
2024-05-09T04:53:06.345Z,4.47
2024-05-09T04:55:34.123Z,4.35
2024-05-09T04:58:01.810Z,4.93
2024-05-09T05:00:35.815Z,6.07
2024-05-09T05:03:11.037Z,5.35
2024-05-09T05:05:41.805Z,6.30
2024-05-09T05:08:13.385Z,4.97
2024-05-09T05:10:41.729Z,5.80
2024-05-09T05:13:22.690Z,4.53
2024-05-09T05:15:53.424Z,3.63
2024-05-09T05:18:21.216Z,5.13
2024-05-09T05:20:49.195Z,4.03
2024-05-09T05:23:18.811Z,3.95
2024-05-09T05:25:50.670Z,4.50
2024-05-09T05:28:18.119Z,6.50
2024-05-09T05:30:46.002Z,5.85
2024-05-09T05:33:14.510Z,5.00
2024-05-09T05:35:42.284Z,3.05
2024-05-09T05:38:10.607Z,5.50
2024-05-09T05:40:38.871Z,5.25
2024-05-09T05:43:10.888Z,5.38
2024-05-09T05:45:39.014Z,4.43
2024-05-09T05:48:07.569Z,6.10
2024-05-09T05:50:37.538Z,5.55
2024-05-09T05:53:07.951Z,7.18
2024-05-09T05:55:36.963Z,7.28
2024-05-09T05:58:04.156Z,7.57
2024-05-09T06:00:38.242Z,7.75
2024-05-09T06:03:08.191Z,7.38
2024-05-09T06:05:36.686Z,6.05
2024-05-09T06:08:04.068Z,6.18
2024-05-09T06:10:37.842Z,9.25
2024-05-09T06:13:07.419Z,6.15
2024-05-09T06:15:34.482Z,5.70
2024-05-09T06:18:01.819Z,6.97
2024-05-09T06:20:35.719Z,6.38
2024-05-09T06:23:06.231Z,7.88
2024-05-09T06:25:33.727Z,6.45
2024-05-09T06:28:01.621Z,6.47
2024-05-09T06:30:37.061Z,6.32
2024-05-09T06:33:08.845Z,6.95
2024-05-09T06:35:36.965Z,5.57
2024-05-09T06:38:04.494Z,6.13
2024-05-09T06:40:37.375Z,5.95
2024-05-09T06:43:13.493Z,7.63
2024-05-09T06:45:40.745Z,5.57
2024-05-09T06:48:09.817Z,7.18
2024-05-09T06:50:38.902Z,7.40
2024-05-09T06:53:07.901Z,5.53
2024-05-09T06:55:34.949Z,6.97
2024-05-09T06:58:01.843Z,7.38
2024-05-09T07:00:35.768Z,7.20
2024-05-09T07:03:10.346Z,6.25
2024-05-09T07:05:37.932Z,6.00
2024-05-09T07:08:06.258Z,6.10
2024-05-09T07:10:35.542Z,4.97
2024-05-09T07:13:03.247Z,7.90
2024-05-09T07:15:30.354Z,8.02
2024-05-09T07:17:57.413Z,6.97
2024-05-09T07:20:32.383Z,6.72
2024-05-09T07:23:03.262Z,5.55
2024-05-09T07:25:30.687Z,6.80
2024-05-09T07:27:57.978Z,5.57
2024-05-09T07:30:32.639Z,6.72
2024-05-09T07:33:02.301Z,5.57
2024-05-09T07:35:30.252Z,6.07
2024-05-09T07:37:57.633Z,4.45
2024-05-09T07:40:32.813Z,5.63
2024-05-09T07:43:13.372Z,6.45
2024-05-09T07:45:50.415Z,7.13
2024-05-09T07:52:38.600Z,5.50
2024-05-09T07:53:49.096Z,7.13
2024-05-09T07:56:21.733Z,6.47
2024-05-09T07:58:52.107Z,6.68
2024-05-09T08:01:20.019Z,5.70
2024-05-09T08:03:47.441Z,5.57
2024-05-09T08:06:14.683Z,7.43
2024-05-09T08:08:41.780Z,4.70
2024-05-09T08:11:08.763Z,6.55
2024-05-09T08:13:35.572Z,7.13
2024-05-09T08:16:02.461Z,7.25
2024-05-09T08:18:29.541Z,5.30
2024-05-09T08:20:56.852Z,5.45
2024-05-09T08:23:26.185Z,5.28
2024-05-09T08:25:53.176Z,6.38
2024-05-09T08:28:20.791Z,5.45
2024-05-09T08:30:48.178Z,7.65
2024-05-09T08:33:15.489Z,5.95
2024-05-09T08:35:42.598Z,5.40
2024-05-09T08:38:09.605Z,5.15
2024-05-09T08:40:37.957Z,5.25
2024-05-09T08:43:11.367Z,5.38
2024-05-09T08:45:45.364Z,2.92
2024-05-09T08:48:15.470Z,3.70
2024-05-09T08:50:44.976Z,4.65
2024-05-09T08:53:15.141Z,6.88
2024-05-09T08:55:44.022Z,3.50
2024-05-09T08:58:16.728Z,5.40
2024-05-09T09:00:45.378Z,5.13
2024-05-09T09:03:19.063Z,4.95
2024-05-09T09:05:54.332Z,4.15
2024-05-09T09:08:21.656Z,4.55
2024-05-09T09:10:49.255Z,4.05
2024-05-09T09:13:16.268Z,4.18
2024-05-09T09:15:50.561Z,4.20
2024-05-09T09:18:18.813Z,4.55
2024-05-09T09:20:46.080Z,4.70
2024-05-09T09:23:13.134Z,5.45
2024-05-09T09:25:40.938Z,4.95
2024-05-09T09:28:09.169Z,6.70
2024-05-09T09:30:43.335Z,5.20
2024-05-09T09:33:10.566Z,6.22
2024-05-09T09:35:39.766Z,5.93
2024-05-09T09:38:08.000Z,5.50
2024-05-09T09:40:40.644Z,4.13
2024-05-09T09:43:18.737Z,5.53
2024-05-09T09:45:48.959Z,4.20
2024-05-09T09:48:17.045Z,4.20
2024-05-09T09:50:45.460Z,5.05
2024-05-09T09:53:13.122Z,4.90
2024-05-09T09:55:40.452Z,6.03
2024-05-09T09:58:09.752Z,5.30
2024-05-09T10:00:39.355Z,7.15
2024-05-09T10:03:06.914Z,4.13
2024-05-09T10:05:35.245Z,5.35
2024-05-09T10:08:07.837Z,4.95
2024-05-09T10:10:35.881Z,5.05
2024-05-09T10:13:07.493Z,5.97
2024-05-09T10:15:48.368Z,7.25
2024-05-09T10:18:15.702Z,4.43
2024-05-09T10:20:46.702Z,9.43
2024-05-09T10:23:30.005Z,6.97
2024-05-09T10:26:01.807Z,6.20
2024-05-09T10:28:29.872Z,5.07
2024-05-09T10:31:11.403Z,6.20
2024-05-09T10:33:40.218Z,4.97
2024-05-09T10:36:23.247Z,5.13
2024-05-09T10:38:52.139Z,6.57
2024-05-09T10:41:20.450Z,6.78
2024-05-09T10:43:48.225Z,6.65
2024-05-09T10:46:16.514Z,6.32
2024-05-09T10:48:45.077Z,4.97
2024-05-09T10:51:13.289Z,6.15
2024-05-09T10:53:44.600Z,6.95
2024-05-09T10:56:13.411Z,5.95
2024-05-09T10:58:40.435Z,5.53
2024-05-09T11:01:08.869Z,5.68
2024-05-09T11:03:37.030Z,5.35
2024-05-09T11:06:05.463Z,5.93
2024-05-09T11:08:33.627Z,5.95
2024-05-09T11:11:03.012Z,4.13
2024-05-09T11:13:31.769Z,4.53
2024-05-09T11:16:00.138Z,6.28
2024-05-09T11:18:32.155Z,4.53
2024-05-09T11:21:02.208Z,6.03
2024-05-09T11:23:32.026Z,5.32
2024-05-09T11:25:59.257Z,7.97
2024-05-09T11:28:29.399Z,5.82
2024-05-09T11:31:10.201Z,5.22
2024-05-09T11:33:43.336Z,5.03
2024-05-09T11:36:10.691Z,5.00
2024-05-09T11:38:37.585Z,5.40
2024-05-09T11:41:05.614Z,5.22
2024-05-09T11:43:32.713Z,5.97
2024-05-09T11:46:02.828Z,4.88
2024-05-09T11:48:30.628Z,6.50
2024-05-09T11:50:57.675Z,6.80
2024-05-09T11:53:24.544Z,4.65
2024-05-09T11:55:51.380Z,6.28
2024-05-09T11:58:19.168Z,6.13
2024-05-09T12:00:46.883Z,5.38
2024-05-09T12:03:14.470Z,5.28
2024-05-09T12:05:41.783Z,4.60
2024-05-09T12:08:09.076Z,4.38
2024-05-09T12:10:36.969Z,4.10
2024-05-09T12:13:06.321Z,5.18
2024-05-09T12:15:37.150Z,6.72
2024-05-09T12:18:05.938Z,5.35
2024-05-09T12:20:37.676Z,3.63
2024-05-09T12:23:09.762Z,6.45
2024-05-09T12:25:38.682Z,4.82
2024-05-09T12:28:06.513Z,4.72
2024-05-09T12:30:38.172Z,4.22
2024-05-09T12:33:12.571Z,3.83
2024-05-09T12:35:43.360Z,4.88
2024-05-09T12:38:12.936Z,4.53
2024-05-09T12:40:39.821Z,3.90
2024-05-09T12:43:08.575Z,4.05
2024-05-09T12:45:37.214Z,4.22
2024-05-09T12:48:07.531Z,5.60
2024-05-09T12:50:35.200Z,5.07
2024-05-09T12:53:03.798Z,4.82
2024-05-09T12:55:40.390Z,4.45
2024-05-09T12:58:18.651Z,4.85
2024-05-09T13:00:46.195Z,3.42
2024-05-09T13:03:13.779Z,4.65
2024-05-09T13:05:47.030Z,3.15
2024-05-09T13:08:14.162Z,3.67
2024-05-09T13:10:41.623Z,2.90
2024-05-09T13:13:11.962Z,3.15
2024-05-09T13:15:39.293Z,4.45
2024-05-09T13:18:07.081Z,3.17
2024-05-09T13:20:36.150Z,3.50
2024-05-09T13:23:05.515Z,3.60
2024-05-09T13:25:35.118Z,4.05
2024-05-09T13:28:03.770Z,3.72
2024-05-09T13:30:39.088Z,3.75
2024-05-09T13:33:14.269Z,3.88
2024-05-09T13:35:48.784Z,4.22
2024-05-09T13:38:20.152Z,2.90
2024-05-09T13:40:47.999Z,3.75
2024-05-09T13:43:15.382Z,3.58
2024-05-09T13:45:42.799Z,2.72
2024-05-09T13:48:10.442Z,3.80
2024-05-09T13:50:37.652Z,3.15
2024-05-09T13:53:06.718Z,2.42
2024-05-09T13:55:35.538Z,3.70
2024-05-09T13:58:03.103Z,3.45
2024-05-09T14:00:42.394Z,2.97
2024-05-09T14:03:15.713Z,3.72
2024-05-09T14:05:43.509Z,3.13
2024-05-09T14:08:11.297Z,3.90
2024-05-09T14:10:44.494Z,3.13
2024-05-09T14:13:12.348Z,2.78
2024-05-09T14:15:39.592Z,2.83
2024-05-09T14:18:10.357Z,3.05
2024-05-09T14:20:39.675Z,2.63
2024-05-09T14:23:06.601Z,2.83
2024-05-09T14:25:37.668Z,3.53
2024-05-09T14:28:07.503Z,2.95
2024-05-09T14:30:37.627Z,2.83
2024-05-09T14:33:07.131Z,3.30
2024-05-09T14:35:35.038Z,2.90
2024-05-09T14:38:02.484Z,3.17
2024-05-09T14:40:39.378Z,2.85
2024-05-09T14:43:14.728Z,2.10
2024-05-09T14:45:43.495Z,3.95
2024-05-09T14:48:11.962Z,2.42
2024-05-09T14:50:40.602Z,2.85
2024-05-09T14:53:09.223Z,2.92
2024-05-09T14:55:37.685Z,3.05
2024-05-09T14:58:08.901Z,2.17
2024-05-09T15:00:44.749Z,2.85
2024-05-09T15:03:15.557Z,3.00
2024-05-09T15:05:42.770Z,2.22
2024-05-09T15:08:09.755Z,1.92
2024-05-09T15:10:38.811Z,2.08
2024-05-09T15:13:08.055Z,2.38
2024-05-09T15:15:37.148Z,2.45
2024-05-09T15:18:05.533Z,2.28
2024-05-09T15:20:36.116Z,2.63
2024-05-09T15:23:06.071Z,2.45
2024-05-09T15:25:34.026Z,4.18
2024-05-09T15:28:01.302Z,2.85
2024-05-09T15:30:31.741Z,2.38
2024-05-09T15:33:01.440Z,2.70
2024-05-09T15:35:28.642Z,2.17
2024-05-09T15:37:55.852Z,2.78
2024-05-09T15:40:31.758Z,2.63
2024-05-09T15:43:06.508Z,2.05
2024-05-09T15:45:34.680Z,2.15
2024-05-09T15:48:03.256Z,2.03
2024-05-09T15:50:37.494Z,2.10
2024-05-09T15:53:09.126Z,2.30
2024-05-09T15:55:37.344Z,2.10
2024-05-09T15:58:05.723Z,2.65
2024-05-09T16:00:38.531Z,1.95
2024-05-09T16:03:13.575Z,2.03
2024-05-09T16:05:43.437Z,1.83
2024-05-09T16:08:12.340Z,2.53
2024-05-09T16:10:44.206Z,1.83
2024-05-09T16:13:12.658Z,1.83
2024-05-09T16:15:39.858Z,1.80
2024-05-09T16:18:07.529Z,2.30
2024-05-09T16:20:39.824Z,2.25
2024-05-09T16:23:09.467Z,1.75
2024-05-09T16:25:37.127Z,1.70
2024-05-09T16:28:08.752Z,3.25
2024-05-09T16:30:39.273Z,1.63
2024-05-09T16:33:06.727Z,2.88
2024-05-09T16:35:34.962Z,1.73
2024-05-09T16:38:03.330Z,1.90
2024-05-09T16:40:37.643Z,1.60
2024-05-09T16:43:10.971Z,2.55
2024-05-09T16:45:40.197Z,1.50
2024-05-09T16:48:08.434Z,2.42
2024-05-09T16:50:36.496Z,1.77
2024-05-09T16:53:05.019Z,2.05
2024-05-09T16:55:32.857Z,1.50
2024-05-09T16:58:00.201Z,2.20
2024-05-09T17:00:38.121Z,2.05
2024-05-09T17:03:10.923Z,1.45
2024-05-09T17:05:39.022Z,1.77
2024-05-09T17:08:06.893Z,1.80
2024-05-09T17:10:35.375Z,2.63
2024-05-09T17:13:04.406Z,1.98
2024-05-09T17:15:32.880Z,1.80
2024-05-09T17:18:00.764Z,1.92
2024-05-09T17:20:33.179Z,2.00
2024-05-09T17:23:03.769Z,1.67
2024-05-09T17:25:30.826Z,1.45
2024-05-09T17:28:05.239Z,1.95
2024-05-09T17:30:36.584Z,1.83
2024-05-09T17:33:06.496Z,1.67
2024-05-09T17:35:33.761Z,2.53
2024-05-09T17:38:01.853Z,1.65
2024-05-09T17:40:33.715Z,1.90
2024-05-09T17:43:04.623Z,1.60
2024-05-09T17:45:32.431Z,2.20
2024-05-09T17:48:00.009Z,1.65
2024-05-09T17:50:34.962Z,2.38
2024-05-09T17:53:04.418Z,2.40
2024-05-09T17:55:31.791Z,2.50
2024-05-09T17:57:58.829Z,1.73
2024-05-09T18:00:36.445Z,1.90
2024-05-09T18:03:07.393Z,1.92
2024-05-09T18:05:38.090Z,1.90
2024-05-09T18:08:06.662Z,1.92
2024-05-09T18:10:37.784Z,2.00
2024-05-09T18:13:08.238Z,1.70
2024-05-09T18:15:35.659Z,1.92
2024-05-09T18:18:03.579Z,1.80
2024-05-09T18:20:39.892Z,1.85
2024-05-09T18:23:11.544Z,1.85
2024-05-09T18:25:38.597Z,1.77
2024-05-09T18:28:06.500Z,2.83
2024-05-09T18:30:36.211Z,2.60
2024-05-09T18:33:06.540Z,2.45
2024-05-09T18:35:34.928Z,2.47
2024-05-09T18:38:01.833Z,2.08
2024-05-09T18:40:34.251Z,3.42
2024-05-09T18:43:07.017Z,2.05
2024-05-09T18:45:35.998Z,2.40
2024-05-09T18:48:05.602Z,2.88
2024-05-09T18:50:37.313Z,2.83
2024-05-09T18:53:07.042Z,2.88
2024-05-09T18:55:33.954Z,3.47
2024-05-09T18:58:01.322Z,2.92
2024-05-09T19:00:34.683Z,2.30
2024-05-09T19:03:09.595Z,3.20
2024-05-09T19:05:39.666Z,2.42
2024-05-09T19:08:07.816Z,2.75
2024-05-09T19:10:36.111Z,2.72
2024-05-09T19:13:09.325Z,2.08
2024-05-09T19:15:40.174Z,1.98
2024-05-09T19:18:07.884Z,2.08
2024-05-09T19:20:36.565Z,2.20
2024-05-09T19:23:06.011Z,1.83
2024-05-09T19:25:33.464Z,2.70
2024-05-09T19:28:01.232Z,2.50
2024-05-09T19:30:37.238Z,1.75
2024-05-09T19:33:08.570Z,2.53
2024-05-09T19:35:35.911Z,2.25
2024-05-09T19:38:02.970Z,2.78
2024-05-09T19:40:32.456Z,3.53
2024-05-09T19:43:02.697Z,2.38
2024-05-09T19:45:30.312Z,2.25
2024-05-09T19:47:57.593Z,2.38
2024-05-09T19:50:32.529Z,2.88
2024-05-09T19:53:07.768Z,2.33
2024-05-09T19:55:34.988Z,2.92
2024-05-09T19:58:05.140Z,2.00
2024-05-09T20:00:39.554Z,2.42
2024-05-09T20:03:09.234Z,2.08
2024-05-09T20:05:37.168Z,1.70
2024-05-09T20:08:05.329Z,1.92
2024-05-09T20:10:34.617Z,1.75
2024-05-09T20:13:04.990Z,1.67
2024-05-09T20:15:35.121Z,2.35
2024-05-09T20:18:02.710Z,2.10
2024-05-09T20:20:37.309Z,2.17
2024-05-09T20:23:08.440Z,1.88
2024-05-09T20:25:35.381Z,2.17
2024-05-09T20:28:02.679Z,1.80
2024-05-09T20:30:32.854Z,3.25
2024-05-09T20:33:07.077Z,1.85
2024-05-09T20:35:35.467Z,1.60
2024-05-09T20:38:03.324Z,1.95
2024-05-09T20:40:35.172Z,1.73
2024-05-09T20:43:06.255Z,2.38
2024-05-09T20:45:33.969Z,1.50
2024-05-09T20:48:01.815Z,1.92
2024-05-09T20:50:36.980Z,2.42
2024-05-09T20:53:16.335Z,2.92
2024-05-09T20:55:44.639Z,1.85
2024-05-09T20:58:12.350Z,1.88
2024-05-09T21:00:42.929Z,2.13
2024-05-09T21:05:41.653Z,1.33
2024-05-09T21:08:08.876Z,1.30
2024-05-09T21:10:36.866Z,2.22
2024-05-09T21:13:07.476Z,1.83
2024-05-09T21:15:35.138Z,3.03
2024-05-09T21:18:02.560Z,2.05
2024-05-09T21:20:32.768Z,1.70
2024-05-09T21:23:01.449Z,1.77
2024-05-09T21:25:28.969Z,2.10
2024-05-09T21:27:55.992Z,2.10
2024-05-09T21:30:32.593Z,1.35
2024-05-09T21:33:13.161Z,1.75
2024-05-09T21:35:42.227Z,1.35
2024-05-09T21:38:09.240Z,1.67
2024-05-09T21:40:37.949Z,1.80
2024-05-09T21:43:07.214Z,1.52
2024-05-09T21:45:35.202Z,2.20
2024-05-09T21:48:06.314Z,1.50
2024-05-09T21:50:39.787Z,1.90
2024-05-09T21:53:12.751Z,2.00
2024-05-09T21:55:40.153Z,1.60
2024-05-09T21:58:07.221Z,1.70
2024-05-09T22:00:38.186Z,2.08
2024-05-09T22:03:07.970Z,2.08
2024-05-09T22:05:36.082Z,1.92
2024-05-09T22:08:03.844Z,1.67
2024-05-09T22:10:34.797Z,2.05
2024-05-09T22:15:36.446Z,1.58
2024-05-09T22:18:04.744Z,2.40
2024-05-09T22:20:37.250Z,1.95
2024-05-09T22:23:06.407Z,1.63
2024-05-09T22:25:33.724Z,1.58
2024-05-09T22:28:02.285Z,1.73
2024-05-09T22:32:59.938Z,1.88
2024-05-09T22:35:26.863Z,1.20
2024-05-09T22:37:53.608Z,1.67
2024-05-09T22:40:29.153Z,2.10
2024-05-09T22:43:06.360Z,1.63
2024-05-09T22:45:33.714Z,1.42
2024-05-09T22:48:00.923Z,1.88
2024-05-09T22:50:32.887Z,1.98
2024-05-09T22:55:27.550Z,1.58
2024-05-09T22:57:54.555Z,1.90
2024-05-09T23:00:29.381Z,2.17
2024-05-09T23:03:02.113Z,2.70
2024-05-09T23:05:29.960Z,1.67
2024-05-09T23:07:56.982Z,1.20
2024-05-09T23:10:31.758Z,2.30
2024-05-09T23:13:03.249Z,1.75
2024-05-09T23:15:30.673Z,2.30
2024-05-09T23:17:58.225Z,2.03
2024-05-09T23:20:35.873Z,1.73
2024-05-09T23:23:10.065Z,1.75
2024-05-09T23:25:38.280Z,2.55
2024-05-09T23:28:05.605Z,1.85
2024-05-09T23:30:37.848Z,1.73
2024-05-09T23:33:08.238Z,1.80
2024-05-09T23:35:35.425Z,1.83
2024-05-09T23:38:02.299Z,2.17
2024-05-09T23:40:37.897Z,2.60
2024-05-09T23:43:11.877Z,1.48
2024-05-09T23:45:39.720Z,2.30
2024-05-09T23:48:07.329Z,1.60
2024-05-09T23:50:37.693Z,2.15
2024-05-09T23:53:08.050Z,1.95
2024-05-09T23:55:36.190Z,2.08
2024-05-09T23:58:03.351Z,1.67
